createdAt,value
2016-12-25T00:00:32.965Z,36.52
2016-12-25T00:01:13.547Z,36.71
2016-12-25T00:01:54.143Z,36.61
2016-12-25T00:02:34.737Z,36.52
2016-12-25T00:03:15.329Z,36.71
2016-12-25T00:03:55.908Z,36.71
2016-12-25T00:04:36.500Z,36.61
2016-12-25T00:05:17.089Z,36.8
2016-12-25T00:05:57.665Z,36.8
2016-12-25T00:06:38.247Z,36.71
2016-12-25T00:07:18.837Z,36.61
2016-12-25T00:07:59.424Z,36.9
2016-12-25T00:08:40.017Z,36.61
2016-12-25T00:09:20.605Z,36.71
2016-12-25T00:10:01.186Z,36.8
2016-12-25T00:10:41.776Z,36.71
2016-12-25T00:11:22.372Z,36.8
2016-12-25T00:12:02.966Z,36.52
2016-12-25T00:12:43.547Z,36.71
2016-12-25T00:13:24.131Z,36.8
2016-12-25T00:14:04.722Z,36.8
2016-12-25T00:14:45.311Z,36.9
2016-12-25T00:15:25.893Z,36.8
2016-12-25T00:16:06.474Z,36.61
2016-12-25T00:16:47.075Z,36.71
2016-12-25T00:17:27.683Z,36.71
2016-12-25T00:18:08.285Z,36.8
2016-12-25T00:18:48.876Z,36.52
2016-12-25T00:19:29.476Z,36.71
2016-12-25T00:20:10.058Z,36.42
2016-12-25T00:20:50.654Z,36.42
2016-12-25T00:21:31.250Z,36.61
2016-12-25T00:22:11.843Z,36.8
2016-12-25T00:22:52.435Z,36.9
2016-12-25T00:23:33.023Z,36.9
2016-12-25T00:24:13.603Z,36.71
2016-12-25T00:24:54.203Z,36.71
2016-12-25T00:25:34.804Z,36.71
2016-12-25T00:26:15.399Z,36.61
2016-12-25T00:26:56.007Z,36.71
2016-12-25T00:27:36.603Z,36.52
2016-12-25T00:28:17.215Z,36.42
2016-12-25T00:28:57.799Z,36.71
2016-12-25T00:29:38.384Z,36.8
2016-12-25T00:30:18.964Z,36.8
2016-12-25T00:30:59.556Z,36.71
2016-12-25T00:31:40.143Z,36.61
2016-12-25T00:32:20.735Z,36.52
2016-12-25T00:33:01.316Z,36.61
2016-12-25T00:33:41.899Z,36.71
2016-12-25T00:34:22.490Z,36.71
2016-12-25T00:35:03.069Z,36.71
2016-12-25T00:35:43.649Z,36.61
2016-12-25T00:36:24.234Z,36.8
2016-12-25T00:37:04.825Z,36.61
2016-12-25T00:37:45.407Z,36.71
2016-12-25T00:38:25.998Z,36.8
2016-12-25T00:39:06.584Z,36.9
2016-12-25T00:39:47.163Z,36.8
2016-12-25T00:40:27.742Z,36.71
2016-12-25T00:41:08.336Z,37
2016-12-25T00:41:48.938Z,36.71
2016-12-25T00:42:29.545Z,37
2016-12-25T00:43:10.130Z,36.71
2016-12-25T00:43:50.731Z,36.52
2016-12-25T00:44:31.309Z,36.52
2016-12-25T00:45:11.907Z,36.61
2016-12-25T00:45:52.499Z,36.71
2016-12-25T00:46:33.107Z,36.61
2016-12-25T00:47:13.697Z,36.61
2016-12-25T00:47:54.277Z,36.61
2016-12-25T00:48:34.867Z,36.8
2016-12-25T00:49:15.470Z,36.8
2016-12-25T00:49:56.071Z,36.8
2016-12-25T00:50:36.663Z,36.71
2016-12-25T00:51:17.274Z,36.71
2016-12-25T00:51:57.855Z,36.71
2016-12-25T00:52:38.477Z,36.61
2016-12-25T00:53:19.068Z,36.61
2016-12-25T00:53:59.682Z,36.8
2016-12-25T00:54:40.271Z,36.52
2016-12-25T00:55:20.873Z,36.42
2016-12-25T00:56:01.476Z,36.8
2016-12-25T00:56:42.067Z,36.52
2016-12-25T00:57:22.657Z,36.71
2016-12-25T00:58:03.236Z,36.71
2016-12-25T00:58:43.831Z,36.8
2016-12-25T00:59:24.413Z,36.61
2016-12-25T01:00:04.998Z,36.71
2016-12-25T01:00:45.583Z,36.8
2016-12-25T01:01:26.165Z,36.71
2016-12-25T01:02:06.761Z,36.61
2016-12-25T01:02:47.347Z,36.8
2016-12-25T01:03:27.924Z,36.71
2016-12-25T01:04:08.497Z,36.71
2016-12-25T01:04:49.112Z,36.8
2016-12-25T01:05:29.700Z,36.61
2016-12-25T01:06:10.306Z,36.9
2016-12-25T01:06:50.904Z,36.8
2016-12-25T01:07:31.492Z,36.71
2016-12-25T01:08:12.078Z,36.8
2016-12-25T01:08:52.672Z,36.9
2016-12-25T01:09:33.260Z,36.9
2016-12-25T01:10:13.839Z,36.9
2016-12-25T01:10:54.427Z,36.8
2016-12-25T01:11:35.029Z,36.42
2016-12-25T01:12:15.617Z,36.8
2016-12-25T01:12:56.197Z,36.8
2016-12-25T01:13:36.784Z,36.61
2016-12-25T01:14:17.381Z,36.9
2016-12-25T01:14:57.968Z,36.9
2016-12-25T01:15:38.566Z,36.8
2016-12-25T01:16:19.157Z,36.8
2016-12-25T01:16:59.747Z,36.8
2016-12-25T01:17:40.329Z,36.9
2016-12-25T01:18:20.924Z,36.61
2016-12-25T01:19:01.504Z,36.71
2016-12-25T01:19:42.095Z,36.8
2016-12-25T01:20:22.684Z,36.71
2016-12-25T01:21:03.257Z,36.9
2016-12-25T01:21:43.839Z,36.52
2016-12-25T01:22:24.429Z,36.71
2016-12-25T01:23:05.032Z,36.61
2016-12-25T01:23:45.628Z,36.61
2016-12-25T01:24:26.213Z,36.71
2016-12-25T01:25:06.805Z,36.71
2016-12-25T01:25:47.400Z,36.71
2016-12-25T01:26:28.005Z,36.8
2016-12-25T01:27:08.603Z,36.61
2016-12-25T01:27:49.180Z,36.61
2016-12-25T01:28:29.759Z,36.61
2016-12-25T01:29:10.352Z,36.52
2016-12-25T01:29:50.945Z,36.71
2016-12-25T01:30:31.530Z,36.8
2016-12-25T01:31:12.121Z,36.71
2016-12-25T01:31:52.722Z,36.61
2016-12-25T01:32:33.336Z,36.71
2016-12-25T01:33:13.909Z,36.71
2016-12-25T01:33:54.490Z,36.9
2016-12-25T01:34:35.083Z,36.8
2016-12-25T01:35:15.678Z,36.8
2016-12-25T01:35:56.259Z,36.61
2016-12-25T01:36:36.854Z,36.61
2016-12-25T01:37:17.438Z,36.71
2016-12-25T01:37:58.020Z,36.71
2016-12-25T01:38:38.596Z,36.8
2016-12-25T01:39:19.182Z,36.9
2016-12-25T01:39:59.774Z,36.8
2016-12-25T01:40:40.368Z,36.71
2016-12-25T01:41:20.952Z,36.8
2016-12-25T01:42:01.542Z,36.71
2016-12-25T01:42:42.136Z,36.71
2016-12-25T01:43:22.719Z,36.52
2016-12-25T01:44:03.335Z,36.52
2016-12-25T01:44:43.912Z,36.61
2016-12-25T01:45:24.519Z,36.8
2016-12-25T01:46:05.094Z,36.8
2016-12-25T01:46:45.709Z,36.61
2016-12-25T01:47:26.291Z,36.8
2016-12-25T01:48:06.878Z,36.71
2016-12-25T01:48:47.457Z,36.71
2016-12-25T01:49:28.049Z,36.71
2016-12-25T01:50:08.641Z,36.71
2016-12-25T01:50:49.221Z,36.71
2016-12-25T01:51:29.812Z,36.8
2016-12-25T01:52:10.402Z,36.9
2016-12-25T01:52:50.992Z,36.71
2016-12-25T01:53:31.577Z,36.71
2016-12-25T01:54:12.154Z,36.8
2016-12-25T01:54:52.751Z,37
2016-12-25T01:55:33.334Z,36.8
2016-12-25T01:56:13.918Z,36.71
2016-12-25T01:56:54.508Z,36.8
2016-12-25T01:57:35.097Z,36.8
2016-12-25T01:58:15.678Z,36.8
2016-12-25T01:58:56.267Z,36.8
2016-12-25T01:59:36.865Z,36.71
2016-12-25T02:00:17.439Z,36.52
2016-12-25T02:00:58.019Z,36.52
2016-12-25T02:01:38.613Z,36.9
2016-12-25T02:02:19.208Z,36.71
2016-12-25T02:02:59.793Z,36.61
2016-12-25T02:03:40.385Z,36.9
2016-12-25T02:04:20.995Z,36.71
2016-12-25T02:05:01.587Z,36.71
2016-12-25T02:05:42.177Z,36.8
2016-12-25T02:06:22.754Z,36.71
2016-12-25T02:07:03.349Z,36.52
2016-12-25T02:07:43.934Z,36.52
2016-12-25T02:08:24.512Z,36.52
2016-12-25T02:09:05.113Z,36.52
2016-12-25T02:09:45.731Z,36.52
2016-12-25T02:10:26.339Z,36.61
2016-12-25T02:11:06.915Z,36.52
2016-12-25T02:11:47.497Z,36.61
2016-12-25T02:12:28.101Z,36.71
2016-12-25T02:13:08.679Z,36.71
2016-12-25T02:13:49.255Z,36.52
2016-12-25T02:14:29.844Z,36.42
2016-12-25T02:15:10.429Z,36.61
2016-12-25T02:15:51.012Z,36.71
2016-12-25T02:16:31.603Z,36.52
2016-12-25T02:17:12.194Z,36.52
2016-12-25T02:17:52.796Z,36.71
2016-12-25T02:18:33.384Z,36.71
2016-12-25T02:19:13.971Z,36.61
2016-12-25T02:19:54.548Z,36.61
2016-12-25T02:20:35.136Z,36.52
2016-12-25T02:21:15.732Z,36.42
2016-12-25T02:21:56.313Z,36.52
2016-12-25T02:22:36.902Z,36.69
2016-12-25T02:23:17.490Z,36.59
2016-12-25T02:23:58.086Z,36.71
2016-12-25T02:24:38.686Z,36.61
2016-12-25T02:25:19.289Z,36.52
2016-12-25T02:25:59.885Z,36.71
2016-12-25T02:26:40.489Z,36.71
2016-12-25T02:27:21.104Z,36.79
2016-12-25T02:28:01.705Z,36.71
2016-12-25T02:28:42.294Z,36.71
2016-12-25T02:29:22.892Z,36.71
2016-12-25T02:30:03.499Z,36.8
2016-12-25T02:30:44.087Z,36.71
2016-12-25T02:31:24.699Z,36.71
2016-12-25T02:32:05.287Z,36.61
2016-12-25T02:32:45.873Z,36.42
2016-12-25T02:33:26.452Z,36.71
2016-12-25T02:34:07.033Z,36.71
2016-12-25T02:34:47.629Z,36.8
2016-12-25T02:35:28.219Z,36.71
2016-12-25T02:36:08.801Z,36.71
2016-12-25T02:36:49.416Z,36.52
2016-12-25T02:37:30.020Z,36.61
2016-12-25T02:38:10.605Z,36.52
2016-12-25T02:38:51.209Z,36.52
2016-12-25T02:39:31.822Z,36.52
2016-12-25T02:40:12.412Z,36.52
2016-12-25T02:40:52.992Z,36.71
2016-12-25T02:41:33.585Z,36.5
2016-12-25T02:42:14.169Z,36.52
2016-12-25T02:42:54.764Z,36.61
2016-12-25T02:43:35.355Z,36.52
2016-12-25T02:44:15.941Z,36.71
2016-12-25T02:44:56.533Z,36.52
2016-12-25T02:45:37.118Z,36.69
2016-12-25T02:46:17.720Z,36.61
2016-12-25T02:46:58.310Z,36.61
2016-12-25T02:47:38.898Z,36.8
2016-12-25T02:48:19.485Z,36.8
2016-12-25T02:49:00.068Z,36.52
2016-12-25T02:49:40.662Z,36.71
2016-12-25T02:50:21.247Z,36.59
2016-12-25T02:51:01.833Z,36.61
2016-12-25T02:51:42.414Z,36.61
2016-12-25T02:52:23.017Z,36.71
2016-12-25T02:53:03.619Z,36.59
2016-12-25T02:53:44.222Z,36.52
2016-12-25T02:54:24.820Z,36.61
2016-12-25T02:55:05.419Z,36.52
2016-12-25T02:55:45.996Z,36.52
2016-12-25T02:56:26.590Z,36.71
2016-12-25T02:57:07.166Z,36.71
2016-12-25T02:57:47.745Z,36.71
2016-12-25T02:58:28.330Z,36.61
2016-12-25T02:59:08.934Z,36.59
2016-12-25T02:59:49.517Z,36.52
2016-12-25T03:00:30.105Z,36.9
2016-12-25T03:01:10.689Z,36.71
2016-12-25T03:01:51.271Z,36.5
2016-12-25T03:02:31.885Z,36.61
2016-12-25T03:03:12.467Z,36.59
2016-12-25T03:03:53.061Z,36.61
2016-12-25T03:04:33.652Z,36.59
2016-12-25T03:05:14.242Z,36.59
2016-12-25T03:05:54.850Z,36.5
2016-12-25T03:06:35.447Z,36.79
2016-12-25T03:07:16.026Z,36.69
2016-12-25T03:07:56.610Z,36.69
2016-12-25T03:08:37.200Z,36.69
2016-12-25T03:09:17.778Z,36.71
2016-12-25T03:09:58.364Z,36.79
2016-12-25T03:10:38.947Z,36.5
2016-12-25T03:11:19.523Z,36.59
2016-12-25T03:12:00.144Z,36.59
2016-12-25T03:12:40.727Z,36.59
2016-12-25T03:13:21.312Z,36.79
2016-12-25T03:14:01.914Z,36.5
2016-12-25T03:14:42.513Z,36.69
2016-12-25T03:15:23.093Z,36.59
2016-12-25T03:16:03.688Z,36.61
2016-12-25T03:16:44.278Z,36.59
2016-12-25T03:17:24.886Z,36.69
2016-12-25T03:18:05.468Z,36.69
2016-12-25T03:18:46.065Z,36.71
2016-12-25T03:19:26.648Z,36.71
2016-12-25T03:20:07.236Z,36.61
2016-12-25T03:20:47.827Z,36.71
2016-12-25T03:21:28.408Z,36.69
2016-12-25T03:22:08.998Z,36.71
2016-12-25T03:22:49.583Z,36.79
2016-12-25T03:23:30.167Z,36.42
2016-12-25T03:24:10.760Z,36.69
2016-12-25T03:24:51.356Z,36.59
2016-12-25T03:25:31.947Z,36.59
2016-12-25T03:26:12.540Z,36.5
2016-12-25T03:26:53.136Z,36.69
2016-12-25T03:27:33.716Z,36.71
2016-12-25T03:28:14.322Z,36.59
2016-12-25T03:28:54.918Z,36.52
2016-12-25T03:29:35.516Z,36.59
2016-12-25T03:30:16.124Z,36.5
2016-12-25T03:30:56.704Z,36.5
2016-12-25T03:31:37.286Z,36.69
2016-12-25T03:32:17.884Z,36.59
2016-12-25T03:32:58.477Z,36.61
2016-12-25T03:33:39.073Z,36.69
2016-12-25T03:34:19.684Z,36.61
2016-12-25T03:35:00.273Z,36.69
2016-12-25T03:35:40.886Z,36.79
2016-12-25T03:36:21.471Z,36.52
2016-12-25T03:37:02.068Z,36.71
2016-12-25T03:37:42.663Z,36.79
2016-12-25T03:38:23.287Z,36.59
2016-12-25T03:39:03.901Z,36.5
2016-12-25T03:39:44.492Z,36.71
2016-12-25T03:40:25.095Z,36.61
2016-12-25T03:41:05.703Z,36.69
2016-12-25T03:41:46.297Z,36.88
2016-12-25T03:42:26.902Z,36.69
2016-12-25T03:43:07.507Z,36.98
2016-12-25T03:43:48.108Z,36.69
2016-12-25T03:44:28.700Z,36.4
2016-12-25T03:45:09.305Z,36.59
2016-12-25T03:45:49.903Z,36.5
2016-12-25T03:46:30.503Z,36.5
2016-12-25T03:47:11.107Z,36.79
2016-12-25T03:47:51.684Z,36.79
2016-12-25T03:48:32.271Z,36.9
2016-12-25T03:49:12.868Z,36.69
2016-12-25T03:49:53.459Z,36.59
2016-12-25T03:50:34.035Z,36.8
2016-12-25T03:51:14.622Z,36.69
2016-12-25T03:51:55.227Z,36.71
2016-12-25T03:52:35.829Z,36.5
2016-12-25T03:53:16.417Z,36.52
2016-12-25T03:53:57.000Z,36.5
2016-12-25T03:54:37.583Z,36.61
2016-12-25T03:55:18.188Z,36.42
2016-12-25T03:55:58.794Z,36.59
2016-12-25T03:56:39.384Z,36.52
2016-12-25T03:57:19.989Z,36.59
2016-12-25T03:58:00.580Z,36.52
2016-12-25T03:58:41.163Z,36.5
2016-12-25T03:59:21.757Z,36.4
2016-12-25T04:00:02.346Z,36.3
2016-12-25T04:00:42.916Z,36.42
2016-12-25T04:01:23.509Z,36.3
2016-12-25T04:02:04.102Z,36.4
2016-12-25T04:02:44.705Z,36.5
2016-12-25T04:03:25.298Z,36.61
2016-12-25T04:04:05.878Z,36.5
2016-12-25T04:04:46.465Z,36.32
2016-12-25T04:05:27.060Z,36.52
2016-12-25T04:06:07.653Z,36.4
2016-12-25T04:06:48.249Z,36.42
2016-12-25T04:07:28.833Z,36.4
2016-12-25T04:08:09.421Z,36.59
2016-12-25T04:08:50.021Z,36.61
2016-12-25T04:09:30.596Z,36.4
2016-12-25T04:10:11.190Z,36.4
2016-12-25T04:10:51.775Z,36.52
2016-12-25T04:11:32.367Z,36.52
2016-12-25T04:12:12.961Z,36.61
2016-12-25T04:12:53.546Z,36.59
2016-12-25T04:13:34.142Z,36.52
2016-12-25T04:14:14.719Z,36.5
2016-12-25T04:14:55.299Z,36.59
2016-12-25T04:15:35.890Z,36.59
2016-12-25T04:16:16.481Z,36.5
2016-12-25T04:16:57.062Z,36.5
2016-12-25T04:17:37.641Z,36.42
2016-12-25T04:18:18.218Z,36.4
2016-12-25T04:18:58.810Z,36.42
2016-12-25T04:19:39.396Z,36.61
2016-12-25T04:20:19.995Z,36.4
2016-12-25T04:21:00.608Z,36.21
2016-12-25T04:21:41.199Z,36.5
2016-12-25T04:22:21.792Z,36.5
2016-12-25T04:23:02.396Z,36.69
2016-12-25T04:23:42.988Z,36.42
2016-12-25T04:24:23.580Z,36.4
2016-12-25T04:25:04.166Z,36.4
2016-12-25T04:25:44.763Z,36.4
2016-12-25T04:26:25.353Z,36.4
2016-12-25T04:27:05.943Z,36.3
2016-12-25T04:27:46.537Z,36.5
2016-12-25T04:28:27.120Z,36.4
2016-12-25T04:29:07.705Z,36.22
2016-12-25T04:29:48.284Z,36.21
2016-12-25T04:30:28.864Z,36.5
2016-12-25T04:31:09.448Z,36.59
2016-12-25T04:31:50.022Z,36.5
2016-12-25T04:32:30.610Z,36.5
2016-12-25T04:33:11.186Z,36.4
2016-12-25T04:33:51.777Z,36.3
2016-12-25T04:34:32.355Z,36.59
2016-12-25T04:35:12.951Z,36.5
2016-12-25T04:35:53.536Z,36.4
2016-12-25T04:36:34.115Z,36.4
2016-12-25T04:37:14.701Z,36.4
2016-12-25T04:37:55.288Z,36.5
2016-12-25T04:38:35.886Z,36.5
2016-12-25T04:39:16.487Z,36.5
2016-12-25T04:39:57.065Z,36.5
2016-12-25T04:40:37.652Z,36.5
2016-12-25T04:41:18.245Z,36.5
2016-12-25T04:41:58.846Z,36.3
2016-12-25T04:42:39.406Z,36.3
2016-12-25T04:43:19.992Z,36.4
2016-12-25T04:44:00.576Z,36.59
2016-12-25T04:44:41.167Z,36.79
2016-12-25T04:45:21.761Z,36.5
2016-12-25T04:46:02.355Z,36.5
2016-12-25T04:46:42.939Z,36.61
2016-12-25T04:47:23.521Z,36.59
2016-12-25T04:48:04.112Z,36.5
2016-12-25T04:48:44.715Z,36.5
2016-12-25T04:49:25.312Z,36.59
2016-12-25T04:50:05.916Z,36.59
2016-12-25T04:50:46.501Z,36.5
2016-12-25T04:51:27.089Z,36.69
2016-12-25T04:52:07.683Z,36.59
2016-12-25T04:52:48.286Z,36.69
2016-12-25T04:53:28.865Z,36.59
2016-12-25T04:54:09.455Z,36.69
2016-12-25T04:54:50.040Z,36.4
2016-12-25T04:55:30.630Z,36.5
2016-12-25T04:56:11.236Z,36.59
2016-12-25T04:56:51.837Z,36.59
2016-12-25T04:57:32.447Z,36.4
2016-12-25T04:58:13.051Z,36.69
2016-12-25T04:58:53.654Z,36.4
2016-12-25T04:59:34.238Z,36.4
2016-12-25T05:00:14.861Z,36.59
2016-12-25T05:00:55.451Z,36.59
2016-12-25T05:01:36.041Z,36.21
2016-12-25T05:02:16.646Z,36.4
2016-12-25T05:02:57.233Z,36.3
2016-12-25T05:03:37.822Z,36.3
2016-12-25T05:04:18.401Z,36.5
2016-12-25T05:04:58.988Z,36.11
2016-12-25T05:05:39.573Z,36.52
2016-12-25T05:06:20.193Z,36.3
2016-12-25T05:07:00.788Z,36.4
2016-12-25T05:07:41.376Z,36.3
2016-12-25T05:08:21.966Z,36.5
2016-12-25T05:09:02.575Z,36.5
2016-12-25T05:09:43.151Z,36.4
2016-12-25T05:10:23.732Z,36.21
2016-12-25T05:11:04.324Z,36.3
2016-12-25T05:11:44.904Z,36.21
2016-12-25T05:12:25.503Z,36.21
2016-12-25T05:13:06.090Z,36.3
2016-12-25T05:13:46.686Z,36.3
2016-12-25T05:14:27.281Z,36.21
2016-12-25T05:15:07.871Z,36.11
2016-12-25T05:15:48.463Z,36.21
2016-12-25T05:16:29.046Z,36.5
2016-12-25T05:17:09.627Z,36.3
2016-12-25T05:17:50.227Z,36.21
2016-12-25T05:18:30.810Z,36.4
2016-12-25T05:19:11.388Z,36.3
2016-12-25T05:19:51.975Z,36.4
2016-12-25T05:20:32.552Z,36.4
2016-12-25T05:21:13.156Z,36.21
2016-12-25T05:21:53.759Z,36.4
2016-12-25T05:22:34.351Z,36.4
2016-12-25T05:23:14.951Z,36.3
2016-12-25T05:23:55.538Z,36.3
2016-12-25T05:24:36.145Z,36.21
2016-12-25T05:25:16.724Z,36.4
2016-12-25T05:25:57.320Z,36.4
2016-12-25T05:26:37.913Z,36.4
2016-12-25T05:27:18.490Z,36.59
2016-12-25T05:27:59.077Z,36.5
2016-12-25T05:28:39.673Z,36.3
2016-12-25T05:29:20.259Z,36.4
2016-12-25T05:30:00.846Z,36.4
2016-12-25T05:30:41.428Z,36.4
2016-12-25T05:31:22.017Z,36.59
2016-12-25T05:32:02.616Z,36.5
2016-12-25T05:32:43.208Z,36.59
2016-12-25T05:33:23.795Z,36.59
2016-12-25T05:34:04.379Z,36.69
2016-12-25T05:34:44.975Z,36.5
2016-12-25T05:35:25.568Z,36.4
2016-12-25T05:36:06.166Z,36.3
2016-12-25T05:36:46.764Z,36.3
2016-12-25T05:37:27.347Z,36.3
2016-12-25T05:38:07.933Z,36.4
2016-12-25T05:38:48.540Z,36.21
2016-12-25T05:39:29.119Z,36.3
2016-12-25T05:40:09.701Z,36.4
2016-12-25T05:40:50.292Z,36.5
2016-12-25T05:41:30.887Z,36.21
2016-12-25T05:42:11.483Z,36.11
2016-12-25T05:42:52.072Z,36.4
2016-12-25T05:43:32.684Z,36.4
2016-12-25T05:44:13.274Z,36.3
2016-12-25T05:44:53.860Z,36.4
2016-12-25T05:45:34.449Z,36.3
2016-12-25T05:46:15.030Z,36.3
2016-12-25T05:46:55.627Z,36.21
2016-12-25T05:47:36.214Z,36.3
2016-12-25T05:48:16.806Z,36.5
2016-12-25T05:48:57.410Z,36.4
2016-12-25T05:49:38.019Z,36.4
2016-12-25T05:50:18.606Z,36.21
2016-12-25T05:50:59.214Z,36.4
2016-12-25T05:51:39.818Z,36.5
2016-12-25T05:52:20.420Z,36.21
2016-12-25T05:53:01.006Z,36.21
2016-12-25T05:53:41.615Z,36.5
2016-12-25T05:54:22.220Z,36.4
2016-12-25T05:55:02.817Z,36.3
2016-12-25T05:55:43.393Z,36.59
2016-12-25T05:56:23.978Z,36.3
2016-12-25T05:57:04.580Z,36.4
2016-12-25T05:57:45.157Z,36.4
2016-12-25T05:58:25.741Z,36.4
2016-12-25T05:59:06.338Z,36.59
2016-12-25T05:59:46.922Z,36.59
2016-12-25T06:00:27.504Z,36.59
2016-12-25T06:01:08.084Z,36.21
2016-12-25T06:01:48.666Z,36.4
2016-12-25T06:02:29.261Z,36.4
2016-12-25T06:03:09.838Z,36.4
2016-12-25T06:03:50.422Z,36.11
2016-12-25T06:04:31.023Z,36.21
2016-12-25T06:05:11.616Z,36.21
2016-12-25T06:05:52.202Z,36.3
2016-12-25T06:06:32.790Z,36.3
2016-12-25T06:07:13.378Z,36.21
2016-12-25T06:07:53.970Z,36.21
2016-12-25T06:08:34.559Z,36.3
2016-12-25T06:09:15.154Z,36.3
2016-12-25T06:09:55.748Z,36.3
2016-12-25T06:10:36.340Z,36.4
2016-12-25T06:11:16.928Z,36.5
2016-12-25T06:11:57.518Z,36.4
2016-12-25T06:12:38.110Z,36.4
2016-12-25T06:13:18.695Z,36.3
2016-12-25T06:13:59.280Z,36.4
2016-12-25T06:14:39.869Z,36.59
2016-12-25T06:15:20.449Z,36.59
2016-12-25T06:16:01.031Z,36.21
2016-12-25T06:16:41.618Z,36.11
2016-12-25T06:17:22.194Z,36.4
2016-12-25T06:18:02.788Z,36.01
2016-12-25T06:18:43.383Z,36.01
2016-12-25T06:19:23.971Z,36.4
2016-12-25T06:20:04.561Z,36.3
2016-12-25T06:20:45.151Z,36.3
2016-12-25T06:21:25.732Z,36.21
2016-12-25T06:22:06.330Z,36.21
2016-12-25T06:22:46.907Z,36.4
2016-12-25T06:23:27.491Z,36.21
2016-12-25T06:24:08.077Z,36.4
2016-12-25T06:24:48.655Z,36.21
2016-12-25T06:25:29.237Z,36.21
2016-12-25T06:26:09.841Z,36.5
2016-12-25T06:26:50.444Z,36.59
2016-12-25T06:27:31.044Z,36.3
2016-12-25T06:28:11.634Z,36.3
2016-12-25T06:28:52.229Z,36.3
2016-12-25T06:29:32.816Z,36.01
2016-12-25T06:30:13.408Z,36.11
2016-12-25T06:30:54.001Z,36.11
2016-12-25T06:31:34.604Z,36.11
2016-12-25T06:32:15.184Z,36.4
2016-12-25T06:32:55.775Z,36.3
2016-12-25T06:33:36.370Z,36.21
2016-12-25T06:34:16.972Z,36.21
2016-12-25T06:34:57.556Z,36.21
2016-12-25T06:35:38.141Z,36.3
2016-12-25T06:36:18.729Z,36.5
2016-12-25T06:36:59.321Z,36.3
2016-12-25T06:37:39.895Z,36.11
2016-12-25T06:38:20.480Z,36.3
2016-12-25T06:39:01.068Z,36.3
2016-12-25T06:39:41.647Z,36.4
2016-12-25T06:40:22.241Z,36.11
2016-12-25T06:41:02.838Z,36.11
2016-12-25T06:41:43.430Z,36.3
2016-12-25T06:42:24.004Z,36.21
2016-12-25T06:43:04.582Z,36.4
2016-12-25T06:43:45.167Z,36.21
2016-12-25T06:44:25.757Z,36.21
2016-12-25T06:45:06.344Z,36.3
2016-12-25T06:45:46.950Z,36.4
2016-12-25T06:46:27.527Z,36.21
2016-12-25T06:47:08.111Z,36.11
2016-12-25T06:47:48.696Z,36.11
2016-12-25T06:48:29.289Z,36.3
2016-12-25T06:49:09.872Z,36.3
2016-12-25T06:49:50.459Z,36.3
2016-12-25T06:50:31.044Z,36.11
2016-12-25T06:51:11.630Z,36.3
2016-12-25T06:51:52.214Z,36.5
2016-12-25T06:52:32.798Z,36.4
2016-12-25T06:53:13.388Z,36.21
2016-12-25T06:53:53.968Z,36.21
2016-12-25T06:54:34.555Z,36.3
2016-12-25T06:55:15.149Z,36.21
2016-12-25T06:55:55.740Z,36.11
2016-12-25T06:56:36.324Z,36.4
2016-12-25T06:57:16.920Z,36.3
2016-12-25T06:57:57.507Z,36.3
2016-12-25T06:58:38.095Z,36.3
2016-12-25T06:59:18.691Z,36.3
2016-12-25T06:59:59.288Z,36.21
2016-12-25T07:00:39.868Z,36.3
2016-12-25T07:01:20.456Z,36.21
2016-12-25T07:02:01.039Z,36.3
2016-12-25T07:02:41.634Z,36.3
2016-12-25T07:03:22.219Z,36.11
2016-12-25T07:04:02.798Z,36.21
2016-12-25T07:04:43.424Z,36.11
2016-12-25T07:05:24.000Z,36.3
2016-12-25T07:06:04.597Z,36.21
2016-12-25T07:06:45.204Z,36.21
2016-12-25T07:07:25.783Z,36.11
2016-12-25T07:08:06.364Z,36.01
2016-12-25T07:08:46.954Z,36.4
2016-12-25T07:09:27.529Z,36.11
2016-12-25T07:10:08.114Z,36.11
2016-12-25T07:10:48.717Z,36.11
2016-12-25T07:11:29.306Z,36.4
2016-12-25T07:12:09.894Z,36.21
2016-12-25T07:12:50.516Z,36.11
2016-12-25T07:13:31.098Z,36.11
2016-12-25T07:14:11.728Z,36.21
2016-12-25T07:14:52.333Z,36.11
2016-12-25T07:15:32.927Z,36.3
2016-12-25T07:16:13.528Z,36.21
2016-12-25T07:16:54.130Z,36.11
2016-12-25T07:17:34.746Z,36.11
2016-12-25T07:18:15.337Z,36.21
2016-12-25T07:18:55.924Z,36.11
2016-12-25T07:19:36.519Z,36.21
2016-12-25T07:20:17.106Z,36.11
2016-12-25T07:20:57.695Z,36.11
2016-12-25T07:21:38.280Z,36.4
2016-12-25T07:22:18.859Z,36.3
2016-12-25T07:22:59.437Z,36.21
2016-12-25T07:23:40.017Z,36.5
2016-12-25T07:24:20.602Z,36.4
2016-12-25T07:25:01.211Z,36.3
2016-12-25T07:25:41.803Z,36.21
2016-12-25T07:26:22.394Z,36.3
2016-12-25T07:27:02.995Z,36.21
2016-12-25T07:27:43.579Z,36.01
2016-12-25T07:28:24.170Z,36.21
2016-12-25T07:29:04.763Z,36.3
2016-12-25T07:29:45.365Z,36.3
2016-12-25T07:30:25.965Z,36.4
2016-12-25T07:31:06.570Z,36.3
2016-12-25T07:31:47.152Z,36.3
2016-12-25T07:32:27.742Z,36.5
2016-12-25T07:33:08.330Z,36.5
2016-12-25T07:33:48.928Z,36.21
2016-12-25T07:34:29.522Z,36.11
2016-12-25T07:35:10.128Z,36.21
2016-12-25T07:35:50.713Z,36.11
2016-12-25T07:36:31.303Z,36.21
2016-12-25T07:37:11.904Z,36.3
2016-12-25T07:37:52.491Z,36.11
2016-12-25T07:38:33.091Z,36.11
2016-12-25T07:39:13.674Z,36.21
2016-12-25T07:39:54.250Z,36.01
2016-12-25T07:40:34.845Z,36.21
2016-12-25T07:41:15.451Z,36.11
2016-12-25T07:41:56.034Z,36.11
2016-12-25T07:42:36.649Z,36.21
2016-12-25T07:43:17.242Z,36.3
2016-12-25T07:43:57.829Z,36.21
2016-12-25T07:44:38.413Z,36.3
2016-12-25T07:45:19.002Z,36.21
2016-12-25T07:45:59.608Z,36.4
2016-12-25T07:46:40.178Z,36.11
2016-12-25T07:47:20.770Z,36.21
2016-12-25T07:48:01.366Z,36.11
2016-12-25T07:48:41.955Z,36.21
2016-12-25T07:49:22.571Z,36.3
2016-12-25T07:50:03.171Z,36.3
2016-12-25T07:50:43.744Z,36.11
2016-12-25T07:51:24.323Z,36.01
2016-12-25T07:52:04.913Z,36.3
2016-12-25T07:52:45.500Z,36.21
2016-12-25T07:53:26.084Z,36.11
2016-12-25T07:54:06.681Z,36.21
2016-12-25T07:54:47.266Z,36.11
2016-12-25T07:55:27.851Z,36.11
2016-12-25T07:56:08.457Z,36.11
2016-12-25T07:56:49.040Z,36.11
2016-12-25T07:57:29.636Z,36.21
2016-12-25T07:58:10.228Z,36.21
2016-12-25T07:58:50.816Z,36.21
2016-12-25T07:59:31.396Z,36.11
2016-12-25T08:00:11.991Z,36.3
2016-12-25T08:00:52.576Z,36.21
2016-12-25T08:01:33.173Z,36.11
2016-12-25T08:02:13.760Z,36.21
2016-12-25T08:02:54.345Z,36.3
2016-12-25T08:03:34.938Z,36.11
2016-12-25T08:04:15.519Z,36.11
2016-12-25T08:04:56.112Z,36.21
2016-12-25T08:05:36.708Z,36.21
2016-12-25T08:06:17.302Z,36.4
2016-12-25T08:06:57.910Z,36.11
2016-12-25T08:07:38.494Z,36.21
2016-12-25T08:08:19.086Z,36.01
2016-12-25T08:08:59.674Z,36.01
2016-12-25T08:09:40.260Z,36.01
2016-12-25T08:10:20.861Z,36.21
2016-12-25T08:11:01.461Z,36.21
2016-12-25T08:11:42.052Z,36.11
2016-12-25T08:12:22.633Z,36.11
2016-12-25T08:13:03.222Z,36.11
2016-12-25T08:13:43.820Z,36.21
2016-12-25T08:14:24.410Z,36.11
2016-12-25T08:15:05.012Z,36.4
2016-12-25T08:15:45.599Z,35.92
2016-12-25T08:16:26.202Z,36.21
2016-12-25T08:17:06.791Z,36.01
2016-12-25T08:17:47.377Z,36.11
2016-12-25T08:18:27.951Z,36.3
2016-12-25T08:19:08.550Z,36.01
2016-12-25T08:19:49.142Z,36.21
2016-12-25T08:20:29.729Z,36.11
2016-12-25T08:21:10.317Z,36.21
2016-12-25T08:21:50.907Z,35.92
2016-12-25T08:22:31.512Z,35.82
2016-12-25T08:23:12.104Z,36.11
2016-12-25T08:23:52.714Z,35.82
2016-12-25T08:24:33.308Z,36.11
2016-12-25T08:25:13.890Z,36.11
2016-12-25T08:25:54.465Z,36.21
2016-12-25T08:26:35.064Z,36.01
2016-12-25T08:27:15.669Z,36.11
2016-12-25T08:27:56.274Z,36.21
2016-12-25T08:28:36.876Z,36.01
2016-12-25T08:29:17.473Z,36.11
2016-12-25T08:29:58.083Z,36.21
2016-12-25T08:30:38.669Z,36.01
2016-12-25T08:31:19.255Z,36.21
2016-12-25T08:31:59.841Z,36.21
2016-12-25T08:32:40.424Z,36.21
2016-12-25T08:33:21.017Z,36.11
2016-12-25T08:34:01.611Z,36.11
2016-12-25T08:34:42.198Z,35.92
2016-12-25T08:35:22.794Z,36.11
2016-12-25T08:36:03.390Z,36.11
2016-12-25T08:36:43.969Z,36.3
2016-12-25T08:37:24.549Z,36.3
2016-12-25T08:38:05.146Z,35.82
2016-12-25T08:38:45.722Z,36.21
2016-12-25T08:39:26.305Z,36.21
2016-12-25T08:40:06.895Z,36.21
2016-12-25T08:40:47.470Z,36.21
2016-12-25T08:41:28.058Z,36.11
2016-12-25T08:42:08.644Z,36.21
2016-12-25T08:42:49.231Z,35.82
2016-12-25T08:43:29.831Z,35.82
2016-12-25T08:44:10.422Z,35.92
2016-12-25T08:44:50.999Z,35.82
2016-12-25T08:45:31.591Z,35.92
2016-12-25T08:46:12.194Z,35.92
2016-12-25T08:46:52.767Z,36.01
2016-12-25T08:47:33.364Z,36.01
2016-12-25T08:48:13.963Z,36.01
2016-12-25T08:48:54.543Z,35.92
2016-12-25T08:49:35.139Z,36.01